createdAt,value
2023-03-24T00:01:29.026Z,5.95
2023-03-24T00:03:55.581Z,7.15
2023-03-24T00:06:26.384Z,5.95
2023-03-24T00:08:52.984Z,8.30
2023-03-24T00:11:21.151Z,8.23
2023-03-24T00:13:50.005Z,9.35
2023-03-24T00:16:17.057Z,6.03
2023-03-24T00:18:43.834Z,6.80
2023-03-24T00:21:11.696Z,6.00
2023-03-24T00:23:38.520Z,9.02
2023-03-24T00:26:15.060Z,4.40
2023-03-24T00:28:44.204Z,11.93
2023-03-24T00:31:11.131Z,5.22
2023-03-24T00:33:37.833Z,6.47
2023-03-24T00:36:06.989Z,5.60
2023-03-24T00:38:34.739Z,5.97
2023-03-24T00:41:02.237Z,5.75
2023-03-24T00:43:29.777Z,5.72
2023-03-24T00:46:05.934Z,6.32
2023-03-24T00:48:35.018Z,6.43
2023-03-24T00:51:05.551Z,5.97
2023-03-24T00:53:32.051Z,8.10
2023-03-24T00:55:59.059Z,5.38
2023-03-24T00:58:25.993Z,5.68
2023-03-24T01:00:55.642Z,6.20
2023-03-24T01:03:26.928Z,5.03
2023-03-24T01:08:29.766Z,4.88
2023-03-24T01:10:57.204Z,5.22
2023-03-24T01:13:26.386Z,6.00
2023-03-24T01:15:53.941Z,8.80
2023-03-24T01:18:21.326Z,4.93
2023-03-24T01:20:51.220Z,6.65
2023-03-24T01:23:21.349Z,5.35
2023-03-24T01:25:49.047Z,6.80
2023-03-24T01:28:21.624Z,6.22
2023-03-24T01:30:48.064Z,6.80
2023-03-24T01:33:14.477Z,7.22
2023-03-24T01:35:41.183Z,5.88
2023-03-24T01:38:09.737Z,5.57
2023-03-24T01:40:39.132Z,5.22
2023-03-24T01:43:07.429Z,6.10
2023-03-24T01:46:00.409Z,5.15
2023-03-24T01:48:33.325Z,6.03
2023-03-24T01:51:41.862Z,7.53
2023-03-24T01:54:18.722Z,7.35
2023-03-24T01:56:51.843Z,6.40
2023-03-24T01:59:23.361Z,8.38
2023-03-24T02:02:06.615Z,9.90
2023-03-24T02:04:54.148Z,5.97
2023-03-24T02:07:36.542Z,5.38
2023-03-24T02:10:07.193Z,9.20
2023-03-24T02:12:33.636Z,7.28
2023-03-24T02:15:03.709Z,8.65
2023-03-24T02:17:45.489Z,7.50
2023-03-24T02:20:37.383Z,5.90
2023-03-24T02:23:41.603Z,5.95
2023-03-24T02:26:32.334Z,7.70
2023-03-24T02:29:17.618Z,7.03
2023-03-24T02:32:15.324Z,5.07
2023-03-24T02:35:11.664Z,6.35
2023-03-24T02:38:15.337Z,6.30
2023-03-24T02:40:59.172Z,6.43
2023-03-24T02:43:31.680Z,5.32
2023-03-24T02:46:13.562Z,6.47
2023-03-24T02:49:03.809Z,8.57
2023-03-24T02:51:59.629Z,9.45
2023-03-24T02:54:40.395Z,8.90
2023-03-24T02:57:18.999Z,6.93
2023-03-24T03:00:19.997Z,6.05
2023-03-24T03:03:35.671Z,4.90
2023-03-24T03:06:09.000Z,5.30
2023-03-24T03:08:37.886Z,6.35
2023-03-24T03:11:07.543Z,6.00
2023-03-24T03:13:39.224Z,6.88
2023-03-24T03:16:12.607Z,6.13
2023-03-24T03:18:45.087Z,7.45
2023-03-24T03:21:14.636Z,5.30
2023-03-24T03:23:49.749Z,5.90
2023-03-24T03:26:22.381Z,8.48
2023-03-24T03:28:57.938Z,7.43
2023-03-24T03:31:29.720Z,8.63
2023-03-24T03:34:05.139Z,7.22
2023-03-24T03:36:44.637Z,7.40
2023-03-24T03:39:14.286Z,8.50
2023-03-24T03:41:40.911Z,6.60
2023-03-24T03:44:07.524Z,4.30
2023-03-24T03:46:35.935Z,6.68
2023-03-24T03:49:07.438Z,6.57
2023-03-24T03:51:35.125Z,9.15
2023-03-24T03:54:05.509Z,4.88
2023-03-24T03:56:34.057Z,6.75
2023-03-24T03:59:33.908Z,7.90
2023-03-24T04:02:19.358Z,7.97
2023-03-24T04:05:05.905Z,6.22
2023-03-24T04:08:07.320Z,4.45
2023-03-24T04:11:08.883Z,7.65
2023-03-24T04:14:15.260Z,7.00
2023-03-24T04:17:20.092Z,7.93
2023-03-24T04:20:12.760Z,5.28
2023-03-24T04:22:59.080Z,6.20
2023-03-24T04:25:56.758Z,5.90
2023-03-24T04:28:33.221Z,7.15
2023-03-24T04:31:25.942Z,5.95
2023-03-24T04:34:05.196Z,5.35
2023-03-24T04:36:44.148Z,6.32
2023-03-24T04:39:44.221Z,8.77
2023-03-24T04:42:30.446Z,4.72
2023-03-24T04:44:57.797Z,6.40
2023-03-24T04:47:54.828Z,7.82
2023-03-24T04:53:10.478Z,8.00
2023-03-24T04:55:50.187Z,5.53
2023-03-24T04:58:27.393Z,6.22
2023-03-24T05:00:55.560Z,6.20
2023-03-24T05:03:22.782Z,4.78
2023-03-24T05:05:50.460Z,10.25
2023-03-24T05:08:18.850Z,5.32
2023-03-24T05:10:46.311Z,6.15
2023-03-24T05:13:14.007Z,6.60
2023-03-24T05:15:46.543Z,5.55
2023-03-24T05:18:33.350Z,6.22
2023-03-24T05:21:00.284Z,6.20
2023-03-24T05:23:27.457Z,4.18
2023-03-24T05:25:55.638Z,4.75
2023-03-24T05:28:24.080Z,5.38
2023-03-24T05:30:53.295Z,6.00
2023-03-24T05:33:37.002Z,5.13
2023-03-24T05:36:04.550Z,5.30
2023-03-24T05:38:31.692Z,5.10
2023-03-24T05:41:00.030Z,4.90
2023-03-24T05:43:32.605Z,7.75
2023-03-24T05:46:09.898Z,3.60
2023-03-24T05:48:36.380Z,4.32
2023-03-24T05:51:16.908Z,4.22
2023-03-24T05:53:44.780Z,4.65
2023-03-24T05:56:19.221Z,4.00
2023-03-24T05:59:21.196Z,5.03
2023-03-24T06:01:59.187Z,7.78
2023-03-24T06:04:34.669Z,3.10
2023-03-24T06:07:08.886Z,9.23
2023-03-24T06:09:39.592Z,4.55
2023-03-24T06:12:08.979Z,3.85
2023-03-24T06:14:38.606Z,4.47
2023-03-24T06:17:14.533Z,5.03
2023-03-24T06:19:49.701Z,4.70
2023-03-24T06:22:37.273Z,3.88
2023-03-24T06:25:06.778Z,7.22
2023-03-24T06:27:33.180Z,4.47
2023-03-24T06:30:00.134Z,3.95
2023-03-24T06:32:27.673Z,4.82
2023-03-24T06:34:54.547Z,3.58
2023-03-24T06:37:56.216Z,5.00
2023-03-24T06:40:23.294Z,2.35
2023-03-24T06:42:54.852Z,2.72
2023-03-24T06:45:21.361Z,2.30
2023-03-24T06:47:49.134Z,3.47
2023-03-24T06:50:15.675Z,2.45
2023-03-24T06:52:42.255Z,2.75
2023-03-24T06:55:11.513Z,3.42
2023-03-24T06:57:38.020Z,2.63
2023-03-24T07:00:23.342Z,3.53
2023-03-24T07:02:59.419Z,3.53
2023-03-24T07:05:25.988Z,4.00
2023-03-24T07:08:27.826Z,3.03
2023-03-24T07:10:41.665Z,4.38
2023-03-24T07:13:08.988Z,4.93
2023-03-24T07:15:37.834Z,4.93
2023-03-24T07:18:04.998Z,3.97
2023-03-24T07:20:43.246Z,4.38
2023-03-24T07:23:21.420Z,5.60
2023-03-24T07:25:52.092Z,3.53
2023-03-24T07:28:37.081Z,3.08
2023-03-24T07:31:06.856Z,4.88
2023-03-24T07:33:33.488Z,4.10
2023-03-24T07:36:00.005Z,4.35
2023-03-24T07:38:26.812Z,3.70
2023-03-24T07:40:59.115Z,4.65
2023-03-24T07:43:26.362Z,2.85
2023-03-24T07:46:03.941Z,6.55
2023-03-24T07:48:32.984Z,2.97
2023-03-24T07:50:59.560Z,4.70
2023-03-24T07:53:45.656Z,4.40
2023-03-24T07:56:14.980Z,2.90
2023-03-24T07:58:50.452Z,2.95
2023-03-24T08:01:27.889Z,5.50
2023-03-24T08:03:57.924Z,3.83
2023-03-24T08:06:50.716Z,3.92
2023-03-24T08:09:17.241Z,4.43
2023-03-24T08:11:43.628Z,4.03
2023-03-24T08:14:10.210Z,4.40
2023-03-24T08:16:38.925Z,3.83
2023-03-24T08:19:06.298Z,6.45
2023-03-24T08:21:32.682Z,7.18
2023-03-24T08:23:59.125Z,4.72
2023-03-24T08:26:26.764Z,4.15
2023-03-24T08:28:53.661Z,4.80
2023-03-24T08:31:20.104Z,6.10
2023-03-24T08:33:47.080Z,3.40
2023-03-24T08:36:13.484Z,5.43
2023-03-24T08:38:39.952Z,5.20
2023-03-24T08:41:07.161Z,6.35
2023-03-24T08:43:36.272Z,4.65
2023-03-24T08:46:03.513Z,4.13
2023-03-24T08:48:30.570Z,4.65
2023-03-24T08:50:56.969Z,13.07
2023-03-24T08:53:23.510Z,6.82
2023-03-24T08:55:50.065Z,8.15
2023-03-24T08:58:19.670Z,7.18
2023-03-24T09:00:47.307Z,5.93
2023-03-24T09:03:18.333Z,6.53
2023-03-24T09:05:46.482Z,5.30
2023-03-24T09:08:14.023Z,8.43
2023-03-24T09:10:41.408Z,7.70
2023-03-24T09:13:08.225Z,6.63
2023-03-24T09:15:34.947Z,8.15
2023-03-24T09:18:02.743Z,6.38
2023-03-24T09:20:29.405Z,9.05
2023-03-24T09:22:56.132Z,6.90
2023-03-24T09:25:22.895Z,7.68
2023-03-24T09:27:49.338Z,6.10
2023-03-24T09:30:17.985Z,4.57
2023-03-24T09:32:45.106Z,8.90
2023-03-24T09:35:12.388Z,6.55
2023-03-24T09:37:40.796Z,7.10
2023-03-24T09:40:08.075Z,6.90
2023-03-24T09:42:40.673Z,9.20
2023-03-24T09:45:19.846Z,6.25
2023-03-24T09:47:58.202Z,7.25
2023-03-24T09:50:29.692Z,6.50
2023-03-24T09:53:22.310Z,4.60
2023-03-24T09:55:49.658Z,7.85
2023-03-24T09:58:17.873Z,8.25
2023-03-24T10:00:45.258Z,5.53
2023-03-24T10:03:22.883Z,6.03
2023-03-24T10:06:08.200Z,6.05
2023-03-24T10:08:37.724Z,6.55
2023-03-24T10:11:25.852Z,4.78
2023-03-24T10:14:10.671Z,5.68
2023-03-24T10:16:42.931Z,4.18
2023-03-24T10:19:36.833Z,3.53
2023-03-24T10:22:18.619Z,6.38
2023-03-24T10:24:53.636Z,3.75
2023-03-24T10:27:30.308Z,2.60
2023-03-24T10:30:07.434Z,2.22
2023-03-24T10:32:35.346Z,3.05
2023-03-24T10:35:09.811Z,1.83
2023-03-24T10:37:37.168Z,2.42
2023-03-24T10:40:16.296Z,1.95
2023-03-24T10:42:43.481Z,1.92
2023-03-24T10:45:18.010Z,2.63
2023-03-24T10:47:44.674Z,1.80
2023-03-24T10:50:14.037Z,2.33
2023-03-24T10:52:48.800Z,1.92
2023-03-24T10:55:23.542Z,1.30
2023-03-24T10:57:55.299Z,1.88
2023-03-24T11:00:32.397Z,2.22
2023-03-24T11:03:01.596Z,1.75
2023-03-24T11:05:31.664Z,2.10
2023-03-24T11:08:12.395Z,2.35
2023-03-24T11:10:39.338Z,1.83
2023-03-24T11:13:19.066Z,2.45
2023-03-24T11:16:14.575Z,2.08
2023-03-24T11:19:01.806Z,2.67
2023-03-24T11:21:31.478Z,3.00
2023-03-24T11:24:01.192Z,3.50
2023-03-24T11:26:35.834Z,3.90
2023-03-24T11:29:09.962Z,2.45
2023-03-24T11:31:40.811Z,2.50
2023-03-24T11:34:25.694Z,2.97
2023-03-24T11:37:01.000Z,3.28
2023-03-24T11:39:29.523Z,2.45
2023-03-24T11:42:05.160Z,2.78
2023-03-24T11:44:53.702Z,1.90
2023-03-24T11:47:30.647Z,2.47
2023-03-24T11:50:09.033Z,2.42
2023-03-24T11:52:52.331Z,2.90
2023-03-24T11:55:58.065Z,5.13
2023-03-24T11:58:51.445Z,1.92
2023-03-24T12:01:20.637Z,3.15
2023-03-24T12:03:58.958Z,2.15
2023-03-24T12:06:40.447Z,1.65
2023-03-24T12:09:32.581Z,2.50
2023-03-24T12:12:20.908Z,1.95
2023-03-24T12:15:24.601Z,1.27
2023-03-24T12:18:31.388Z,1.15
2023-03-24T12:21:19.383Z,1.30
2023-03-24T12:23:48.530Z,2.42
2023-03-24T12:26:20.461Z,1.83
2023-03-24T12:29:30.586Z,1.02
2023-03-24T12:32:09.926Z,1.27
2023-03-24T12:34:39.417Z,1.08
2023-03-24T12:37:26.966Z,0.55
2023-03-24T12:40:26.451Z,1.33
2023-03-24T12:43:23.452Z,0.90
2023-03-24T12:45:54.153Z,2.70
2023-03-24T12:48:38.765Z,1.65
2023-03-24T12:51:05.396Z,2.05
2023-03-24T12:53:53.578Z,2.15
2023-03-24T12:56:53.432Z,1.58
2023-03-24T12:59:34.753Z,2.78
2023-03-24T13:04:42.563Z,1.50
2023-03-24T13:07:16.580Z,1.33
2023-03-24T13:09:59.412Z,1.58
2023-03-24T13:12:43.078Z,1.13
2023-03-24T13:15:09.490Z,1.80
2023-03-24T13:18:00.851Z,0.50
2023-03-24T13:20:44.607Z,0.45
2023-03-24T13:23:32.690Z,0.45
2023-03-24T13:26:24.305Z,0.85
2023-03-24T13:29:16.746Z,0.63
2023-03-24T13:31:50.419Z,0.40
2023-03-24T13:34:26.993Z,0.68
2023-03-24T13:36:59.922Z,0.40
2023-03-24T13:39:28.463Z,1.90
2023-03-24T13:41:58.885Z,0.75
2023-03-24T13:44:34.663Z,0.40
2023-03-24T13:47:08.604Z,1.52
2023-03-24T13:49:35.672Z,0.73
2023-03-24T13:52:04.572Z,1.80
2023-03-24T13:54:31.655Z,0.50
2023-03-24T13:57:09.025Z,0.63
2023-03-24T14:00:02.034Z,1.08
2023-03-24T14:02:31.280Z,0.75
2023-03-24T14:05:01.107Z,3.03
2023-03-24T14:07:39.494Z,0.60
2023-03-24T14:10:15.453Z,1.30
2023-03-24T14:12:57.640Z,0.93
2023-03-24T14:15:53.891Z,0.40
2023-03-24T14:18:23.376Z,0.40
2023-03-24T14:21:01.940Z,0.65
2023-03-24T14:23:43.905Z,1.30
2023-03-24T14:26:19.845Z,0.82
2023-03-24T14:28:51.524Z,0.50
2023-03-24T14:31:28.970Z,0.52
2023-03-24T14:34:01.951Z,0.68
2023-03-24T14:36:45.580Z,2.92
2023-03-24T14:39:30.901Z,0.57
2023-03-24T14:41:59.230Z,0.68
2023-03-24T14:44:44.802Z,0.60
2023-03-24T14:47:15.447Z,0.40
2023-03-24T14:49:45.137Z,0.75
2023-03-24T14:52:19.033Z,0.77
2023-03-24T14:54:59.534Z,0.82
2023-03-24T14:57:32.084Z,0.77
2023-03-24T15:00:17.526Z,0.60
2023-03-24T15:02:50.996Z,0.93
2023-03-24T15:05:29.752Z,0.93
2023-03-24T15:08:20.628Z,1.85
2023-03-24T15:10:53.869Z,0.55
2023-03-24T15:13:29.673Z,4.57
2023-03-24T15:15:56.685Z,1.40
2023-03-24T15:18:23.586Z,0.30
2023-03-24T15:20:51.194Z,0.38
2023-03-24T15:23:24.267Z,0.73
2023-03-24T15:25:52.700Z,0.68
2023-03-24T15:28:26.658Z,0.60
2023-03-24T15:30:54.085Z,0.47
2023-03-24T15:33:21.743Z,0.45
2023-03-24T15:35:55.736Z,0.50
2023-03-24T15:38:29.450Z,0.70
2023-03-24T15:41:03.394Z,0.47
2023-03-24T15:43:30.870Z,0.50
2023-03-24T15:46:11.982Z,0.40
2023-03-24T15:48:39.369Z,0.50
2023-03-24T15:51:11.295Z,0.40
2023-03-24T15:53:55.665Z,0.30
2023-03-24T15:56:28.059Z,0.93
2023-03-24T15:59:14.025Z,0.30
2023-03-24T16:01:44.866Z,0.50
2023-03-24T16:04:15.700Z,0.55
2023-03-24T16:06:48.556Z,0.55
2023-03-24T16:09:21.559Z,0.60
2023-03-24T16:11:48.789Z,1.23
2023-03-24T16:14:29.747Z,0.40
2023-03-24T16:16:59.495Z,1.77
2023-03-24T16:19:26.475Z,0.57
2023-03-24T16:21:54.595Z,0.40
2023-03-24T16:24:21.496Z,1.08
2023-03-24T16:26:48.776Z,0.85
2023-03-24T16:29:21.620Z,0.70
2023-03-24T16:31:51.114Z,0.70
2023-03-24T16:34:19.477Z,0.80
2023-03-24T16:36:47.227Z,1.08
2023-03-24T16:39:16.659Z,1.77
2023-03-24T16:41:43.421Z,0.70
2023-03-24T16:44:10.790Z,2.25
2023-03-24T16:46:38.029Z,1.85
2023-03-24T16:49:08.067Z,1.15
2023-03-24T16:51:35.113Z,0.70
2023-03-24T16:54:01.892Z,0.73
2023-03-24T16:56:28.453Z,0.65
2023-03-24T16:58:56.294Z,0.77
2023-03-24T17:01:37.529Z,3.03
2023-03-24T17:06:38.911Z,0.98
2023-03-24T17:09:06.742Z,2.33
2023-03-24T17:11:36.317Z,1.15
2023-03-24T17:14:08.446Z,1.02
2023-03-24T17:16:38.261Z,1.20
2023-03-24T17:19:05.666Z,1.20
2023-03-24T17:21:34.362Z,1.40
2023-03-24T17:24:02.084Z,1.75
2023-03-24T17:26:29.251Z,1.15
2023-03-24T17:28:57.432Z,0.70
2023-03-24T17:31:23.889Z,1.55
2023-03-24T17:33:50.384Z,1.13
2023-03-24T17:36:17.392Z,2.25
2023-03-24T17:38:43.961Z,2.10
2023-03-24T17:41:10.884Z,1.75
2023-03-24T17:43:37.385Z,3.45
2023-03-24T17:46:04.171Z,2.15
2023-03-24T17:48:31.467Z,1.55
2023-03-24T17:50:57.979Z,1.92
2023-03-24T17:53:28.502Z,1.52
2023-03-24T17:55:57.347Z,1.92
2023-03-24T17:58:26.577Z,1.45
2023-03-24T18:00:54.089Z,1.48
2023-03-24T18:03:21.811Z,2.53
2023-03-24T18:05:48.588Z,2.25
2023-03-24T18:08:15.048Z,2.10
2023-03-24T18:10:41.486Z,4.75
2023-03-24T18:13:07.975Z,2.65
2023-03-24T18:15:34.775Z,2.08
2023-03-24T18:18:01.768Z,1.25
2023-03-24T18:20:28.994Z,1.30
2023-03-24T18:22:55.451Z,2.55
2023-03-24T18:25:21.958Z,1.60
2023-03-24T18:27:48.508Z,1.63
2023-03-24T18:30:16.797Z,1.63
2023-03-24T18:32:43.632Z,2.58
2023-03-24T18:35:16.199Z,2.03
2023-03-24T18:37:43.957Z,2.33
2023-03-24T18:40:11.272Z,1.88
2023-03-24T18:42:38.105Z,1.40
2023-03-24T18:45:06.797Z,1.50
2023-03-24T18:47:33.300Z,2.17
2023-03-24T18:49:59.818Z,3.33
2023-03-24T18:52:26.266Z,4.80
2023-03-24T18:54:54.112Z,2.90
2023-03-24T18:57:21.260Z,1.80
2023-03-24T18:59:47.716Z,1.63
2023-03-24T19:02:15.405Z,1.95
2023-03-24T19:04:42.244Z,1.48
2023-03-24T19:07:14.166Z,1.90
2023-03-24T19:09:42.142Z,1.75
2023-03-24T19:12:09.267Z,3.50
2023-03-24T19:14:35.904Z,1.50
2023-03-24T19:17:02.331Z,2.28
2023-03-24T19:19:31.347Z,2.08
2023-03-24T19:21:59.007Z,2.42
2023-03-24T19:24:26.294Z,2.63
2023-03-24T19:26:54.045Z,7.88
2023-03-24T19:29:21.404Z,5.13
2023-03-24T19:31:49.444Z,5.50
2023-03-24T19:34:17.604Z,3.65
2023-03-24T19:36:46.373Z,2.08
2023-03-24T19:39:14.666Z,3.08
2023-03-24T19:41:41.226Z,2.83
2023-03-24T19:44:07.831Z,4.28
2023-03-24T19:46:34.318Z,3.70
2023-03-24T19:49:00.974Z,3.70
2023-03-24T19:51:27.384Z,5.13
2023-03-24T19:53:53.762Z,3.88
2023-03-24T19:56:20.716Z,5.78
2023-03-24T19:58:47.244Z,5.30
2023-03-24T20:01:13.666Z,6.10
2023-03-24T20:03:40.269Z,3.40
2023-03-24T20:06:10.710Z,2.22
2023-03-24T20:08:37.848Z,2.95
2023-03-24T20:11:10.381Z,1.65
2023-03-24T20:13:36.959Z,5.13
2023-03-24T20:16:04.116Z,2.50
2023-03-24T20:18:30.732Z,3.05
2023-03-24T20:20:58.877Z,5.03
2023-03-24T20:23:25.319Z,3.33
2023-03-24T20:25:52.166Z,5.03
2023-03-24T20:28:18.985Z,3.22
2023-03-24T20:30:46.337Z,3.15
2023-03-24T20:33:13.593Z,2.55
2023-03-24T20:35:40.075Z,2.25
2023-03-24T20:38:06.621Z,2.17
2023-03-24T20:40:33.669Z,3.97
2023-03-24T20:43:00.148Z,2.58
2023-03-24T20:45:27.288Z,3.83
2023-03-24T20:47:53.758Z,2.55
2023-03-24T20:50:20.460Z,3.40
2023-03-24T20:52:47.374Z,3.25
2023-03-24T20:55:14.542Z,4.25
2023-03-24T20:57:41.405Z,3.10
2023-03-24T21:00:13.478Z,1.63
2023-03-24T21:02:41.791Z,1.90
2023-03-24T21:05:08.936Z,4.00
2023-03-24T21:07:38.048Z,3.50
2023-03-24T21:10:06.324Z,4.75
2023-03-24T21:12:33.477Z,3.78
2023-03-24T21:15:00.370Z,3.00
2023-03-24T21:17:32.027Z,3.20
2023-03-24T21:20:13.769Z,3.75
2023-03-24T21:22:56.250Z,2.95
2023-03-24T21:25:27.546Z,3.33
2023-03-24T21:30:21.742Z,3.92
2023-03-24T21:32:49.337Z,2.75
2023-03-24T21:35:16.805Z,2.42
2023-03-24T21:37:45.842Z,4.22
2023-03-24T21:40:18.615Z,3.38
2023-03-24T21:42:46.715Z,5.60
2023-03-24T21:45:16.362Z,3.03
2023-03-24T21:47:45.927Z,3.22
2023-03-24T21:50:23.029Z,4.03
2023-03-24T21:52:50.531Z,2.88
2023-03-24T21:55:17.645Z,5.25
2023-03-24T21:57:45.479Z,2.20
2023-03-24T22:00:14.912Z,3.75
2023-03-24T22:02:45.905Z,5.10
2023-03-24T22:05:13.983Z,2.47
2023-03-24T22:07:41.371Z,2.35
2023-03-24T22:10:10.180Z,2.92
2023-03-24T22:12:36.620Z,5.43
2023-03-24T22:15:03.326Z,2.63
2023-03-24T22:17:29.810Z,4.35
2023-03-24T22:19:56.444Z,3.42
2023-03-24T22:22:22.854Z,3.35
2023-03-24T22:24:49.276Z,2.08
2023-03-24T22:27:16.518Z,3.53
2023-03-24T22:29:42.982Z,2.75
2023-03-24T22:32:09.417Z,6.30
2023-03-24T22:34:35.926Z,3.92
2023-03-24T22:37:02.320Z,4.75
2023-03-24T22:39:28.759Z,4.20
2023-03-24T22:41:56.856Z,2.33
2023-03-24T22:44:23.319Z,5.13
2023-03-24T22:46:49.807Z,4.55
2023-03-24T22:49:16.344Z,5.78
2023-03-24T22:51:42.741Z,3.72
2023-03-24T22:54:09.613Z,2.80
2023-03-24T22:56:36.073Z,7.00
2023-03-24T22:59:02.867Z,4.05
2023-03-24T23:01:29.324Z,4.22
2023-03-24T23:03:55.850Z,3.53
2023-03-24T23:06:22.253Z,6.00
2023-03-24T23:08:49.430Z,4.68
2023-03-24T23:11:16.186Z,4.65
2023-03-24T23:13:42.660Z,6.15
2023-03-24T23:16:09.361Z,3.33
2023-03-24T23:18:36.101Z,3.03
2023-03-24T23:21:09.080Z,5.00
2023-03-24T23:23:36.945Z,5.60
2023-03-24T23:26:05.441Z,3.47
2023-03-24T23:28:33.151Z,3.78
2023-03-24T23:30:59.600Z,6.53
2023-03-24T23:33:27.385Z,2.00
2023-03-24T23:35:58.654Z,6.70
2023-03-24T23:38:25.187Z,5.95
2023-03-24T23:40:51.695Z,1.25
2023-03-24T23:43:18.131Z,1.90
2023-03-24T23:45:46.494Z,2.83
2023-03-24T23:48:13.061Z,2.00
2023-03-24T23:50:39.557Z,6.93
2023-03-24T23:53:06.055Z,2.50
2023-03-24T23:55:32.894Z,4.90
2023-03-24T23:57:59.348Z,4.03
